Omaha, Nebraska
Current Conditions -  °F | °C
As of 5:52 PM on Monday 20 Oct 2014 (Local Time) from KOMA Reporting Station
Clear Clear  
Wind Chill: 70°   Ceiling: Unl
Heat Index: 70°   Visibility: 10mi
Dew Point: 41°   Wind: 5mph
Humidity: 35%   Direction: 330°NNW
Pressure: 30.04"   Gusts: NA
Location:  41.26°N, 95.94°W
Report Text: KOMA 202252Z 33004KT 10SM CLR 21/05 A3004 RMK AO2 SLP171 T02110050
Loading
Personal Weather Stations






























Interactive Weather Map
Tropical Storm Tracking
New forecast layout! Learn more

10-Day Weather Forecast

Advertisements
Track Severe Weather on mobile